sensor_id;sensor_type;location;lat;lon;timestamp;pressure;altitude;pressure_sealevel;temperature;humidity
15382;BME280;7789;51.364;12.358;2024-02-04T00:02:47;100724.44;;;11.13;100.00
15382;BME280;7789;51.364;12.358;2024-02-04T00:07:50;100723.50;;;11.14;100.00
15382;BME280;7789;51.364;12.358;2024-02-04T00:12:55;100733.03;;;11.15;100.00
15382;BME280;7789;51.364;12.358;2024-02-04T00:17:59;100702.81;;;11.11;100.00
15382;BME280;7789;51.364;12.358;2024-02-04T00:23:04;100707.47;;;11.08;100.00
15382;BME280;7789;51.364;12.358;2024-02-04T00:28:09;100700.94;;;11.02;100.00
15382;BME280;7789;51.364;12.358;2024-02-04T00:33:13;100707.34;;;10.88;100.00
15382;BME280;7789;51.364;12.358;2024-02-04T00:38:17;100699.72;;;10.74;100.00
15382;BME280;7789;51.364;12.358;2024-02-04T00:43:22;100687.38;;;10.76;100.00
15382;BME280;7789;51.364;12.358;2024-02-04T00:48:26;100672.38;;;10.78;100.00
15382;BME280;7789;51.364;12.358;2024-02-04T00:53:29;100678.56;;;10.77;100.00
15382;BME280;7789;51.364;12.358;2024-02-04T00:58:37;100693.19;;;10.79;100.00
15382;BME280;7789;51.364;12.358;2024-02-04T01:03:42;100691.28;;;10.81;100.00
15382;BME280;7789;51.364;12.358;2024-02-04T01:08:46;100684.41;;;10.80;100.00
15382;BME280;7789;51.364;12.358;2024-02-04T01:13:52;100686.16;;;10.80;100.00
15382;BME280;7789;51.364;12.358;2024-02-04T01:18:58;100677.38;;;10.81;100.00
15382;BME280;7789;51.364;12.358;2024-02-04T01:24:04;100679.41;;;10.77;100.00
15382;BME280;7789;51.364;12.358;2024-02-04T01:29:13;100674.91;;;10.79;100.00
15382;BME280;7789;51.364;12.358;2024-02-04T01:34:21;100685.22;;;10.81;100.00
15382;BME280;7789;51.364;12.358;2024-02-04T01:39:25;100681.53;;;10.83;100.00
15382;BME280;7789;51.364;12.358;2024-02-04T01:44:31;100673.44;;;10.86;100.00
15382;BME280;7789;51.364;12.358;2024-02-04T01:49:35;100657.28;;;10.81;100.00
15382;BME280;7789;51.364;12.358;2024-02-04T01:54:39;100669.31;;;10.84;100.00
15382;BME280;7789;51.364;12.358;2024-02-04T01:59:49;100666.00;;;10.82;100.00
15382;BME280;7789;51.364;12.358;2024-02-04T02:04:54;100670.00;;;10.75;100.00
15382;BME280;7789;51.364;12.358;2024-02-04T02:10:01;100676.53;;;10.69;100.00
15382;BME280;7789;51.364;12.358;2024-02-04T02:15:15;100666.09;;;10.69;100.00
15382;BME280;7789;51.364;12.358;2024-02-04T02:20:23;100664.31;;;10.70;100.00
15382;BME280;7789;51.364;12.358;2024-02-04T02:25:30;100662.53;;;10.70;100.00
15382;BME280;7789;51.364;12.358;2024-02-04T02:30:34;100650.78;;;10.65;100.00
15382;BME280;7789;51.364;12.358;2024-02-04T02:35:38;100658.03;;;10.61;100.00
15382;BME280;7789;51.364;12.358;2024-02-04T02:40:46;100658.59;;;10.54;100.00
15382;BME280;7789;51.364;12.358;2024-02-04T02:45:51;100655.25;;;10.41;100.00
15382;BME280;7789;51.364;12.358;2024-02-04T02:50:56;100661.78;;;10.24;100.00
15382;BME280;7789;51.364;12.358;2024-02-04T02:56:01;100662.94;;;10.09;100.00
15382;BME280;7789;51.364;12.358;2024-02-04T03:01:05;100665.28;;;10.01;100.00
15382;BME280;7789;51.364;12.358;2024-02-04T03:06:09;100660.59;;;9.94;100.00
15382;BME280;7789;51.364;12.358;2024-02-04T03:11:14;100655.50;;;9.92;100.00
15382;BME280;7789;51.364;12.358;2024-02-04T03:16:17;100646.59;;;9.95;100.00
15382;BME280;7789;51.364;12.358;2024-02-04T03:21:20;100646.03;;;10.02;100.00
15382;BME280;7789;51.364;12.358;2024-02-04T03:26:25;100634.06;;;10.11;100.00
15382;BME280;7789;51.364;12.358;2024-02-04T03:31:29;100625.09;;;10.15;100.00
15382;BME280;7789;51.364;12.358;2024-02-04T03:36:32;100620.94;;;10.23;100.00
15382;BME280;7789;51.364;12.358;2024-02-04T03:41:37;100625.69;;;10.29;100.00
15382;BME280;7789;51.364;12.358;2024-02-04T03:46:40;100617.50;;;10.34;100.00
15382;BME280;7789;51.364;12.358;2024-02-04T03:51:44;100620.59;;;10.39;100.00
15382;BME280;7789;51.364;12.358;2024-02-04T03:56:49;100629.13;;;10.41;100.00
15382;BME280;7789;51.364;12.358;2024-02-04T04:01:52;100628.53;;;10.48;100.00
15382;BME280;7789;51.364;12.358;2024-02-04T04:06:57;100618.09;;;10.48;100.00
15382;BME280;7789;51.364;12.358;2024-02-04T04:12:03;100614.28;;;10.52;100.00
15382;BME280;7789;51.364;12.358;2024-02-04T04:17:06;100627.94;;;10.56;100.00
15382;BME280;7789;51.364;12.358;2024-02-04T04:22:10;100623.56;;;10.56;100.00
15382;BME280;7789;51.364;12.358;2024-02-04T04:27:15;100630.31;;;10.59;100.00
15382;BME280;7789;51.364;12.358;2024-02-04T04:32:18;100626.03;;;10.58;100.00
15382;BME280;7789;51.364;12.358;2024-02-04T04:37:22;100632.47;;;10.54;100.00
15382;BME280;7789;51.364;12.358;2024-02-04T04:42:27;100613.22;;;10.55;100.00
15382;BME280;7789;51.364;12.358;2024-02-04T04:47:30;100599.19;;;10.56;100.00
15382;BME280;7789;51.364;12.358;2024-02-04T04:52:33;100592.56;;;10.52;100.00
15382;BME280;7789;51.364;12.358;2024-02-04T04:57:38;100590.66;;;10.54;100.00
15382;BME280;7789;51.364;12.358;2024-02-04T05:02:42;100589.94;;;10.52;100.00
15382;BME280;7789;51.364;12.358;2024-02-04T05:07:46;100579.72;;;10.49;100.00
15382;BME280;7789;51.364;12.358;2024-02-04T05:12:51;100560.47;;;10.50;100.00
15382;BME280;7789;51.364;12.358;2024-02-04T05:17:55;100572.34;;;10.54;100.00
15382;BME280;7789;51.364;12.358;2024-02-04T05:22:58;100571.03;;;10.59;100.00
15382;BME280;7789;51.364;12.358;2024-02-04T05:28:03;100570.81;;;10.62;100.00
15382;BME280;7789;51.364;12.358;2024-02-04T05:33:07;100557.84;;;10.61;100.00
15382;BME280;7789;51.364;12.358;2024-02-04T05:38:10;100559.88;;;10.57;100.00
15382;BME280;7789;51.364;12.358;2024-02-04T05:43:16;100562.09;;;10.62;100.00
15382;BME280;7789;51.364;12.358;2024-02-04T05:48:19;100538.59;;;10.62;100.00
15382;BME280;7789;51.364;12.358;2024-02-04T05:53:22;100536.94;;;10.61;100.00
15382;BME280;7789;51.364;12.358;2024-02-04T05:58:27;100525.41;;;10.63;100.00
15382;BME280;7789;51.364;12.358;2024-02-04T06:03:31;100533.84;;;10.67;100.00
15382;BME280;7789;51.364;12.358;2024-02-04T06:08:35;100518.97;;;10.67;100.00
15382;BME280;7789;51.364;12.358;2024-02-04T06:13:41;100513.50;;;10.70;100.00
15382;BME280;7789;51.364;12.358;2024-02-04T06:18:45;100520.97;;;10.75;100.00
15382;BME280;7789;51.364;12.358;2024-02-04T06:23:49;100507.78;;;10.76;100.00
15382;BME280;7789;51.364;12.358;2024-02-04T06:28:53;100501.84;;;10.74;100.00
15382;BME280;7789;51.364;12.358;2024-02-04T06:33:57;100522.63;;;10.76;100.00
15382;BME280;7789;51.364;12.358;2024-02-04T06:39:00;100520.72;;;10.78;100.00
15382;BME280;7789;51.364;12.358;2024-02-04T06:44:06;100530.56;;;10.85;100.00
15382;BME280;7789;51.364;12.358;2024-02-04T06:49:09;100536.28;;;10.90;100.00
15382;BME280;7789;51.364;12.358;2024-02-04T06:54:14;100512.25;;;10.85;100.00
15382;BME280;7789;51.364;12.358;2024-02-04T06:59:28;100507.88;;;10.86;100.00
15382;BME280;7789;51.364;12.358;2024-02-04T07:04:31;100506.66;;;10.90;100.00
15382;BME280;7789;51.364;12.358;2024-02-04T07:09:35;100504.06;;;10.90;100.00
15382;BME280;7789;51.364;12.358;2024-02-04T07:14:40;100522.38;;;10.90;100.00
15382;BME280;7789;51.364;12.358;2024-02-04T07:19:43;100514.97;;;10.95;100.00
15382;BME280;7789;51.364;12.358;2024-02-04T07:24:47;100509.88;;;10.93;100.00
15382;BME280;7789;51.364;12.358;2024-02-04T07:29:52;100495.00;;;10.94;100.00
15382;BME280;7789;51.364;12.358;2024-02-04T07:34:56;100489.50;;;10.97;100.00
15382;BME280;7789;51.364;12.358;2024-02-04T07:40:00;100496.19;;;11.01;100.00
15382;BME280;7789;51.364;12.358;2024-02-04T07:45:06;100504.47;;;11.05;100.00
15382;BME280;7789;51.364;12.358;2024-02-04T07:50:11;100472.09;;;11.17;100.00
15382;BME280;7789;51.364;12.358;2024-02-04T07:55:15;100470.88;;;11.42;100.00
15382;BME280;7789;51.364;12.358;2024-02-04T08:00:20;100489.13;;;11.53;100.00
15382;BME280;7789;51.364;12.358;2024-02-04T08:05:24;100485.41;;;11.55;100.00
15382;BME280;7789;51.364;12.358;2024-02-04T08:10:28;100492.97;;;11.69;100.00
15382;BME280;7789;51.364;12.358;2024-02-04T08:15:37;100501.47;;;11.62;100.00
15382;BME280;7789;51.364;12.358;2024-02-04T08:20:40;100483.53;;;11.57;100.00
15382;BME280;7789;51.364;12.358;2024-02-04T08:25:44;100462.31;;;11.60;100.00
15382;BME280;7789;51.364;12.358;2024-02-04T08:30:50;100482.31;;;11.61;100.00
15382;BME280;7789;51.364;12.358;2024-02-04T08:35:54;100469.78;;;11.65;100.00
15382;BME280;7789;51.364;12.358;2024-02-04T08:40:57;100458.09;;;11.69;100.00
15382;BME280;7789;51.364;12.358;2024-02-04T08:46:04;100476.31;;;11.70;100.00
15382;BME280;7789;51.364;12.358;2024-02-04T08:51:14;100463.22;;;11.70;100.00
15382;BME280;7789;51.364;12.358;2024-02-04T08:56:20;100487.59;;;11.71;100.00
15382;BME280;7789;51.364;12.358;2024-02-04T09:01:25;100476.84;;;11.74;100.00
15382;BME280;7789;51.364;12.358;2024-02-04T09:06:28;100489.56;;;11.78;100.00
15382;BME280;7789;51.364;12.358;2024-02-04T09:11:35;100479.25;;;11.77;100.00
15382;BME280;7789;51.364;12.358;2024-02-04T09:16:45;100478.28;;;11.78;100.00
15382;BME280;7789;51.364;12.358;2024-02-04T09:21:49;100484.22;;;11.80;100.00
15382;BME280;7789;51.364;12.358;2024-02-04T09:26:52;100488.19;;;11.74;100.00
15382;BME280;7789;51.364;12.358;2024-02-04T09:32:04;100488.56;;;11.70;100.00
15382;BME280;7789;51.364;12.358;2024-02-04T09:37:14;100492.50;;;11.64;100.00
15382;BME280;7789;51.364;12.358;2024-02-04T09:42:20;100485.38;;;11.66;100.00
15382;BME280;7789;51.364;12.358;2024-02-04T09:47:26;100483.59;;;11.67;100.00
15382;BME280;7789;51.364;12.358;2024-02-04T09:52:33;100464.28;;;11.68;100.00
15382;BME280;7789;51.364;12.358;2024-02-04T09:57:36;100468.25;;;11.62;100.00
15382;BME280;7789;51.364;12.358;2024-02-04T10:02:44;100451.19;;;11.68;100.00
15382;BME280;7789;51.364;12.358;2024-02-04T10:07:50;100471.88;;;11.71;100.00
15382;BME280;7789;51.364;12.358;2024-02-04T10:12:54;100451.25;;;11.77;100.00
15382;BME280;7789;51.364;12.358;2024-02-04T10:18:10;100420.13;;;11.84;100.00
15382;BME280;7789;51.364;12.358;2024-02-04T10:23:26;100427.59;;;11.88;100.00
15382;BME280;7789;51.364;12.358;2024-02-04T10:28:34;100422.94;;;11.92;100.00
15382;BME280;7789;51.364;12.358;2024-02-04T10:33:47;100414.78;;;11.95;100.00
15382;BME280;7789;51.364;12.358;2024-02-04T10:38:53;100403.63;;;11.93;100.00
15382;BME280;7789;51.364;12.358;2024-02-04T10:43:58;100402.66;;;11.94;100.00
15382;BME280;7789;51.364;12.358;2024-02-04T10:49:07;100383.47;;;11.93;100.00
15382;BME280;7789;51.364;12.358;2024-02-04T10:54:16;100375.34;;;11.96;100.00
15382;BME280;7789;51.364;12.358;2024-02-04T10:59:24;100382.41;;;11.96;100.00
15382;BME280;7789;51.364;12.358;2024-02-04T11:04:34;100382.78;;;11.91;100.00
15382;BME280;7789;51.364;12.358;2024-02-04T11:09:39;100367.06;;;11.91;100.00
15382;BME280;7789;51.364;12.358;2024-02-04T11:14:46;100372.59;;;11.88;100.00
15382;BME280;7789;51.364;12.358;2024-02-04T11:20:05;100376.00;;;11.89;100.00
15382;BME280;7789;51.364;12.358;2024-02-04T11:30:42;100375.03;;;11.90;100.00
15382;BME280;7789;51.364;12.358;2024-02-04T11:35:58;100357.56;;;12.00;100.00
15382;BME280;7789;51.364;12.358;2024-02-04T11:41:02;100352.75;;;12.05;100.00
15382;BME280;7789;51.364;12.358;2024-02-04T11:46:06;100362.97;;;12.08;100.00
15382;BME280;7789;51.364;12.358;2024-02-04T11:51:17;100368.06;;;12.00;100.00
15382;BME280;7789;51.364;12.358;2024-02-04T11:56:20;100355.38;;;12.05;100.00
15382;BME280;7789;51.364;12.358;2024-02-04T12:01:24;100341.47;;;12.14;100.00
15382;BME280;7789;51.364;12.358;2024-02-04T12:06:30;100346.31;;;12.18;100.00
15382;BME280;7789;51.364;12.358;2024-02-04T12:11:34;100348.25;;;12.26;100.00
15382;BME280;7789;51.364;12.358;2024-02-04T12:16:38;100346.31;;;12.28;100.00
15382;BME280;7789;51.364;12.358;2024-02-04T12:21:43;100342.16;;;12.25;100.00
15382;BME280;7789;51.364;12.358;2024-02-04T12:26:46;100352.66;;;12.25;100.00
15382;BME280;7789;51.364;12.358;2024-02-04T12:32:01;100345.06;;;12.22;100.00
15382;BME280;7789;51.364;12.358;2024-02-04T12:37:13;100330.44;;;12.20;100.00
15382;BME280;7789;51.364;12.358;2024-02-04T12:42:18;100320.34;;;12.25;100.00
15382;BME280;7789;51.364;12.358;2024-02-04T12:47:23;100316.94;;;12.34;100.00
15382;BME280;7789;51.364;12.358;2024-02-04T12:52:33;100311.00;;;12.41;100.00
15382;BME280;7789;51.364;12.358;2024-02-04T12:57:40;100325.47;;;12.45;100.00
15382;BME280;7789;51.364;12.358;2024-02-04T13:02:48;100316.53;;;12.48;100.00
15382;BME280;7789;51.364;12.358;2024-02-04T13:07:54;100309.75;;;12.45;100.00
15382;BME280;7789;51.364;12.358;2024-02-04T13:12:59;100326.84;;;12.40;100.00
15382;BME280;7789;51.364;12.358;2024-02-04T13:18:03;100317.06;;;12.32;100.00
15382;BME280;7789;51.364;12.358;2024-02-04T13:23:09;100326.16;;;12.28;100.00
15382;BME280;7789;51.364;12.358;2024-02-04T13:28:12;100342.03;;;12.27;100.00
15382;BME280;7789;51.364;12.358;2024-02-04T13:33:16;100343.41;;;12.21;100.00
15382;BME280;7789;51.364;12.358;2024-02-04T13:38:22;100340.09;;;12.19;100.00
15382;BME280;7789;51.364;12.358;2024-02-04T13:43:25;100347.69;;;12.22;100.00
15382;BME280;7789;51.364;12.358;2024-02-04T13:48:29;100356.63;;;12.20;100.00
15382;BME280;7789;51.364;12.358;2024-02-04T13:53:34;100353.03;;;12.11;100.00
15382;BME280;7789;51.364;12.358;2024-02-04T13:58:38;100358.00;;;12.14;100.00
15382;BME280;7789;51.364;12.358;2024-02-04T14:03:42;100355.81;;;12.10;100.00
15382;BME280;7789;51.364;12.358;2024-02-04T14:08:47;100354.84;;;12.01;100.00
15382;BME280;7789;51.364;12.358;2024-02-04T14:13:50;100356.03;;;11.97;100.00
15382;BME280;7789;51.364;12.358;2024-02-04T14:18:57;100345.03;;;11.94;100.00
15382;BME280;7789;51.364;12.358;2024-02-04T14:24:04;100350.66;;;11.89;100.00
15382;BME280;7789;51.364;12.358;2024-02-04T14:29:08;100353.41;;;11.88;100.00
15382;BME280;7789;51.364;12.358;2024-02-04T14:34:13;100355.31;;;11.86;100.00
15382;BME280;7789;51.364;12.358;2024-02-04T14:39:18;100338.13;;;11.83;100.00
15382;BME280;7789;51.364;12.358;2024-02-04T14:44:22;100343.47;;;11.82;100.00
15382;BME280;7789;51.364;12.358;2024-02-04T14:49:25;100354.34;;;11.77;100.00
15382;BME280;7789;51.364;12.358;2024-02-04T14:54:31;100360.81;;;11.73;100.00
15382;BME280;7789;51.364;12.358;2024-02-04T14:59:35;100364.94;;;11.66;100.00
15382;BME280;7789;51.364;12.358;2024-02-04T15:04:42;100354.69;;;11.63;100.00
15382;BME280;7789;51.364;12.358;2024-02-04T15:09:48;100366.41;;;11.59;100.00
15382;BME280;7789;51.364;12.358;2024-02-04T15:14:53;100360.34;;;11.59;100.00
15382;BME280;7789;51.364;12.358;2024-02-04T15:19:57;100362.25;;;11.57;100.00
15382;BME280;7789;51.364;12.358;2024-02-04T15:25:03;100343.34;;;11.53;100.00
15382;BME280;7789;51.364;12.358;2024-02-04T15:30:08;100333.97;;;11.51;100.00
15382;BME280;7789;51.364;12.358;2024-02-04T15:35:13;100323.06;;;11.46;100.00
15382;BME280;7789;51.364;12.358;2024-02-04T15:40:20;100308.44;;;11.43;100.00
15382;BME280;7789;51.364;12.358;2024-02-04T15:45:25;100316.69;;;11.39;100.00
15382;BME280;7789;51.364;12.358;2024-02-04T15:50:30;100320.41;;;11.36;100.00
15382;BME280;7789;51.364;12.358;2024-02-04T15:55:42;100320.69;;;11.33;100.00
15382;BME280;7789;51.364;12.358;2024-02-04T16:00:46;100322.44;;;11.33;100.00
15382;BME280;7789;51.364;12.358;2024-02-04T16:05:56;100313.34;;;11.27;100.00
15382;BME280;7789;51.364;12.358;2024-02-04T16:11:04;100309.22;;;11.25;100.00
15382;BME280;7789;51.364;12.358;2024-02-04T16:16:12;100302.72;;;11.19;100.00
15382;BME280;7789;51.364;12.358;2024-02-04T16:21:17;100331.03;;;11.14;100.00
15382;BME280;7789;51.364;12.358;2024-02-04T16:26:28;100307.34;;;11.16;100.00
15382;BME280;7789;51.364;12.358;2024-02-04T16:31:32;100316.81;;;11.07;100.00
15382;BME280;7789;51.364;12.358;2024-02-04T16:36:36;100316.81;;;11.07;100.00
15382;BME280;7789;51.364;12.358;2024-02-04T16:41:43;100315.03;;;11.08;100.00
15382;BME280;7789;51.364;12.358;2024-02-04T16:46:54;100321.75;;;11.01;100.00
15382;BME280;7789;51.364;12.358;2024-02-04T16:51:58;100315.81;;;10.99;100.00
15382;BME280;7789;51.364;12.358;2024-02-04T16:57:03;100300.97;;;11.00;100.00
15382;BME280;7789;51.364;12.358;2024-02-04T17:02:09;100301.19;;;10.97;100.00
15382;BME280;7789;51.364;12.358;2024-02-04T17:07:16;100306.03;;;11.01;100.00
15382;BME280;7789;51.364;12.358;2024-02-04T17:12:21;100302.72;;;10.99;100.00
15382;BME280;7789;51.364;12.358;2024-02-04T17:17:30;100307.00;;;11.00;100.00
15382;BME280;7789;51.364;12.358;2024-02-04T17:22:39;100311.28;;;11.01;100.00
15382;BME280;7789;51.364;12.358;2024-02-04T17:27:45;100294.78;;;11.01;100.00
15382;BME280;7789;51.364;12.358;2024-02-04T17:32:56;100288.84;;;10.99;100.00
15382;BME280;7789;51.364;12.358;2024-02-04T17:38:00;100298.72;;;10.95;100.00
15382;BME280;7789;51.364;12.358;2024-02-04T17:43:13;100292.78;;;10.93;100.00
15382;BME280;7789;51.364;12.358;2024-02-04T17:48:24;100277.22;;;10.92;100.00
15382;BME280;7789;51.364;12.358;2024-02-04T17:53:27;100277.22;;;10.92;100.00
15382;BME280;7789;51.364;12.358;2024-02-04T17:58:32;100270.34;;;10.91;100.00
15382;BME280;7789;51.364;12.358;2024-02-04T18:03:38;100255.59;;;10.90;100.00
15382;BME280;7789;51.364;12.358;2024-02-04T18:08:45;100261.78;;;10.89;100.00
15382;BME280;7789;51.364;12.358;2024-02-04T18:13:50;100274.75;;;10.90;100.00
15382;BME280;7789;51.364;12.358;2024-02-04T18:18:54;100299.09;;;10.91;100.00
15382;BME280;7789;51.364;12.358;2024-02-04T18:23:59;100290.56;;;10.89;100.00
15382;BME280;7789;51.364;12.358;2024-02-04T18:29:07;100284.38;;;10.90;100.00
15382;BME280;7789;51.364;12.358;2024-02-04T18:34:10;100273.78;;;10.91;100.00
15382;BME280;7789;51.364;12.358;2024-02-04T18:39:15;100266.06;;;10.90;100.00
15382;BME280;7789;51.364;12.358;2024-02-04T18:44:20;100283.53;;;10.89;100.00
15382;BME280;7789;51.364;12.358;2024-02-04T18:49:24;100288.91;;;10.88;100.00
15382;BME280;7789;51.364;12.358;2024-02-04T18:54:28;100279.25;;;10.88;100.00
15382;BME280;7789;51.364;12.358;2024-02-04T18:59:35;100270.22;;;10.92;100.00
15382;BME280;7789;51.364;12.358;2024-02-04T19:04:39;100265.81;;;10.93;100.00
15382;BME280;7789;51.364;12.358;2024-02-04T19:09:43;100254.53;;;10.92;100.00
15382;BME280;7789;51.364;12.358;2024-02-04T19:14:48;100256.72;;;10.97;100.00
15382;BME280;7789;51.364;12.358;2024-02-04T19:19:52;100231.53;;;10.96;100.00
15382;BME280;7789;51.364;12.358;2024-02-04T19:24:56;100228.50;;;10.91;100.00
15382;BME280;7789;51.364;12.358;2024-02-04T19:30:00;100240.59;;;10.92;100.00
15382;BME280;7789;51.364;12.358;2024-02-04T19:35:12;100244.19;;;10.91;100.00
15382;BME280;7789;51.364;12.358;2024-02-04T19:40:20;100241.56;;;10.91;100.00
15382;BME280;7789;51.364;12.358;2024-02-04T19:45:25;100223.00;;;10.94;100.00
15382;BME280;7789;51.364;12.358;2024-02-04T19:50:29;100201.53;;;10.90;100.00
15382;BME280;7789;51.364;12.358;2024-02-04T19:55:33;100219.13;;;10.88;100.00
15382;BME280;7789;51.364;12.358;2024-02-04T20:00:38;100207.00;;;10.87;100.00
15382;BME280;7789;51.364;12.358;2024-02-04T20:05:42;100207.97;;;10.86;100.00
15382;BME280;7789;51.364;12.358;2024-02-04T20:10:52;100183.63;;;10.86;100.00
15382;BME280;7789;51.364;12.358;2024-02-04T20:15:59;100196.00;;;10.84;100.00
15382;BME280;7789;51.364;12.358;2024-02-04T20:21:05;100186.22;;;10.86;100.00
15382;BME280;7789;51.364;12.358;2024-02-04T20:26:15;100181.97;;;10.85;100.00
15382;BME280;7789;51.364;12.358;2024-02-04T20:31:26;100165.81;;;10.80;100.00
15382;BME280;7789;51.364;12.358;2024-02-04T20:36:29;100156.88;;;10.82;100.00
15382;BME280;7789;51.364;12.358;2024-02-04T20:41:44;100158.16;;;10.88;100.00
15382;BME280;7789;51.364;12.358;2024-02-04T20:46:49;100151.00;;;10.90;100.00
15382;BME280;7789;51.364;12.358;2024-02-04T20:51:55;100147.31;;;10.92;100.00
15382;BME280;7789;51.364;12.358;2024-02-04T20:56:59;100142.88;;;10.93;100.00
15382;BME280;7789;51.364;12.358;2024-02-04T21:02:04;100140.97;;;10.95;100.00
15382;BME280;7789;51.364;12.358;2024-02-04T21:07:08;100126.09;;;10.95;100.00
15382;BME280;7789;51.364;12.358;2024-02-04T21:12:15;100121.19;;;11.02;100.00
15382;BME280;7789;51.364;12.358;2024-02-04T21:17:26;100107.81;;;11.04;100.00
15382;BME280;7789;51.364;12.358;2024-02-04T21:22:30;100101.63;;;11.05;100.00
15382;BME280;7789;51.364;12.358;2024-02-04T21:27:34;100089.81;;;11.11;100.00
15382;BME280;7789;51.364;12.358;2024-02-04T21:32:47;100072.88;;;11.15;100.00
15382;BME280;7789;51.364;12.358;2024-02-04T21:37:51;100062.00;;;11.19;100.00
15382;BME280;7789;51.364;12.358;2024-02-04T21:42:57;100062.53;;;11.23;100.00
15382;BME280;7789;51.364;12.358;2024-02-04T21:48:02;100055.94;;;11.28;100.00
15382;BME280;7789;51.364;12.358;2024-02-04T21:53:06;100048.63;;;11.32;100.00
15382;BME280;7789;51.364;12.358;2024-02-04T21:58:10;100050.16;;;11.34;100.00
15382;BME280;7789;51.364;12.358;2024-02-04T22:03:16;100035.81;;;11.38;100.00
15382;BME280;7789;51.364;12.358;2024-02-04T22:08:19;100028.78;;;11.39;100.00
15382;BME280;7789;51.364;12.358;2024-02-04T22:13:23;100022.59;;;11.40;100.00
15382;BME280;7789;51.364;12.358;2024-02-04T22:18:28;100034.44;;;11.44;100.00
15382;BME280;7789;51.364;12.358;2024-02-04T22:23:32;100030.03;;;11.44;100.00
15382;BME280;7789;51.364;12.358;2024-02-04T22:28:39;100039.41;;;11.47;100.00
15382;BME280;7789;51.364;12.358;2024-02-04T22:33:47;100025.22;;;11.49;100.00
15382;BME280;7789;51.364;12.358;2024-02-04T22:38:51;100026.59;;;11.53;100.00
15382;BME280;7789;51.364;12.358;2024-02-04T22:43:54;100027.16;;;11.57;100.00
15382;BME280;7789;51.364;12.358;2024-02-04T22:49:02;100033.78;;;11.61;100.00
15382;BME280;7789;51.364;12.358;2024-02-04T22:54:06;100018.88;;;11.61;100.00
15382;BME280;7789;51.364;12.358;2024-02-04T22:59:11;100018.59;;;11.64;100.00
15382;BME280;7789;51.364;12.358;2024-02-04T23:04:16;100028.09;;;11.65;100.00
15382;BME280;7789;51.364;12.358;2024-02-04T23:09:19;100005.25;;;11.67;100.00
15382;BME280;7789;51.364;12.358;2024-02-04T23:14:22;100017.22;;;11.70;100.00
15382;BME280;7789;51.364;12.358;2024-02-04T23:19:28;100019.00;;;11.69;100.00
15382;BME280;7789;51.364;12.358;2024-02-04T23:24:31;100015.72;;;11.67;100.00
15382;BME280;7789;51.364;12.358;2024-02-04T23:29:38;100010.19;;;11.70;100.00
15382;BME280;7789;51.364;12.358;2024-02-04T23:34:43;99993.34;;;11.73;100.00
15382;BME280;7789;51.364;12.358;2024-02-04T23:39:47;100000.94;;;11.76;100.00
15382;BME280;7789;51.364;12.358;2024-02-04T23:44:50;99992.13;;;11.77;100.00
15382;BME280;7789;51.364;12.358;2024-02-04T23:49:55;99996.91;;;11.81;100.00
15382;BME280;7789;51.364;12.358;2024-02-04T23:55:01;99993.19;;;11.84;100.00
